Time;durP1;ratioP1;P1;durP2;ratioP2;P2;SDS_P1;SDS_P2;PMS_P1;PMS_P2;Temp;Humidity;BMP_temperature;BMP_pressure;BME280_temperature;BME280_humidity;BME280_pressure;Samples;Min_cycle;Max_cycle;Signal;HPM_P1;HPM_P2
2021/05/23 00:01:32;;;;;;;8.25;4.10;;;10.90;99.90;;;;;;4716417;30;20049;-84
2021/05/23 00:03:59;;;;;;;8.02;4.55;;;10.80;99.90;;;;;;4713627;30;20055;-85
2021/05/23 00:06:25;;;;;;;6.03;3.72;;;10.80;99.90;;;;;;4723845;30;20045;-84
2021/05/23 00:08:52;;;;;;;8.57;4.20;;;10.80;99.90;;;;;;4722621;30;20040;-84
2021/05/23 00:11:19;;;;;;;7.78;3.42;;;10.80;99.90;;;;;;4716580;30;20047;-83
2021/05/23 00:13:49;;;;;;;7.85;3.90;;;10.80;99.90;;;;;;4747450;30;20523;-81
2021/05/23 00:16:23;;;;;;;11.98;4.30;;;10.80;99.90;;;;;;4730243;30;20044;-84
2021/05/23 00:18:54;;;;;;;6.70;3.80;;;10.90;99.90;;;;;;4719300;30;20059;-84
2021/05/23 00:21:23;;;;;;;6.28;3.80;;;10.80;99.90;;;;;;4735341;30;20060;-83
2021/05/23 00:23:49;;;;;;;8.57;4.00;;;10.80;99.90;;;;;;4721783;30;20060;-85
2021/05/23 00:26:16;;;;;;;12.50;4.55;;;10.80;99.90;;;;;;4719290;30;20395;-85
2021/05/23 00:28:42;;;;;;;7.20;3.67;;;10.80;99.90;;;;;;4721428;30;20056;-85
2021/05/23 00:31:09;;;;;;;9.60;3.90;;;10.80;99.90;;;;;;4713624;30;20519;-85
2021/05/23 00:33:36;;;;;;;9.30;3.92;;;10.80;99.90;;;;;;4732958;30;20075;-85
2021/05/23 00:36:04;;;;;;;7.78;4.50;;;10.80;99.90;;;;;;4731558;30;20048;-84
2021/05/23 00:38:33;;;;;;;9.77;4.00;;;10.80;99.90;;;;;;4694975;30;20041;-85
2021/05/23 00:41:00;;;;;;;6.88;3.95;;;10.80;99.90;;;;;;4716311;30;20064;-85
2021/05/23 00:43:27;;;;;;;6.10;3.70;;;10.80;99.90;;;;;;4721063;30;20413;-85
2021/05/23 00:45:53;;;;;;;10.25;3.95;;;10.80;99.90;;;;;;4725129;30;20048;-85
2021/05/23 00:48:22;;;;;;;6.40;4.18;;;10.70;99.90;;;;;;4744482;30;20056;-85
2021/05/23 00:50:50;;;;;;;9.80;3.92;;;10.80;99.90;;;;;;4702814;30;20049;-85
2021/05/23 00:53:17;;;;;;;10.43;3.95;;;10.70;99.90;;;;;;4745729;30;20061;-85
2021/05/23 00:55:44;;;;;;;7.10;3.47;;;10.70;99.90;;;;;;4724373;30;20056;-85
2021/05/23 00:58:11;;;;;;;8.23;3.88;;;10.70;99.90;;;;;;4723098;30;20515;-85
2021/05/23 01:00:41;;;;;;;7.55;3.78;;;10.70;99.90;;;;;;4745005;30;20421;-85
2021/05/23 01:03:29;;;;;;;9.98;4.63;;;10.70;99.90;;;;;;4737265;30;20048;-85
2021/05/23 01:06:07;;;;;;;7.75;3.67;;;10.70;99.90;;;;;;4722156;30;20056;-84
2021/05/23 01:08:35;;;;;;;10.48;4.30;;;10.70;99.90;;;;;;4747225;30;20063;-84
2021/05/23 01:11:06;;;;;;;7.60;3.85;;;10.70;99.90;;;;;;4727017;30;20048;-84
2021/05/23 01:13:39;;;;;;;9.07;4.28;;;10.70;99.90;;;;;;4745397;30;20421;-84
2021/05/23 01:16:22;;;;;;;10.05;4.68;;;10.60;99.90;;;;;;4705321;30;20064;-83
2021/05/23 01:18:54;;;;;;;8.73;5.40;;;10.60;99.90;;;;;;4746305;30;20060;-84
2021/05/23 01:21:23;;;;;;;9.25;5.47;;;10.60;99.90;;;;;;4715611;30;20051;-84
2021/05/23 01:23:57;;;;;;;9.48;5.55;;;10.60;99.90;;;;;;4732619;30;20063;-84
2021/05/23 01:26:25;;;;;;;8.48;4.68;;;10.60;99.90;;;;;;4730828;30;20048;-84
2021/05/23 01:28:57;;;;;;;9.18;5.53;;;10.60;99.90;;;;;;4737328;30;20513;-85
2021/05/23 01:31:27;;;;;;;6.55;5.30;;;10.60;99.90;;;;;;4715513;30;20055;-84
2021/05/23 01:33:55;;;;;;;9.27;5.82;;;10.60;99.90;;;;;;4745390;30;20056;-84
2021/05/23 01:36:27;;;;;;;8.88;6.22;;;10.60;99.90;;;;;;4723491;30;20044;-84
2021/05/23 01:38:56;;;;;;;8.60;5.63;;;10.60;99.90;;;;;;4745688;30;20153;-84
2021/05/23 01:41:23;;;;;;;9.23;6.20;;;10.60;99.90;;;;;;4729567;30;20040;-83
2021/05/23 01:43:50;;;;;;;9.00;5.40;;;10.60;99.90;;;;;;4721947;30;20048;-84
2021/05/23 01:46:18;;;;;;;10.38;5.93;;;10.60;99.90;;;;;;4729647;30;20052;-84
2021/05/23 01:48:44;;;;;;;7.50;5.57;;;10.60;99.90;;;;;;4730817;30;20052;-84
2021/05/23 01:51:13;;;;;;;9.65;5.20;;;10.60;99.90;;;;;;4707871;30;20060;-85
2021/05/23 01:53:41;;;;;;;9.25;5.60;;;10.60;99.90;;;;;;4718200;30;20052;-83
2021/05/23 01:56:11;;;;;;;9.88;5.30;;;10.60;99.90;;;;;;4730504;30;20048;-83
2021/05/23 01:58:38;;;;;;;10.73;6.20;;;10.70;99.90;;;;;;4716275;30;20052;-83
2021/05/23 02:01:05;;;;;;;11.18;5.22;;;10.60;99.90;;;;;;4714502;30;20063;-84
2021/05/23 02:03:33;;;;;;;12.15;5.55;;;10.60;99.90;;;;;;4742669;30;20063;-83
2021/05/23 02:06:01;;;;;;;8.88;4.85;;;10.50;99.90;;;;;;4713427;30;20048;-84
2021/05/23 02:08:30;;;;;;;9.45;5.10;;;10.50;99.90;;;;;;4719072;30;20428;-83
2021/05/23 02:10:59;;;;;;;10.93;4.93;;;10.40;99.90;;;;;;4735301;30;20096;-83
2021/05/23 02:13:27;;;;;;;9.30;5.35;;;10.40;99.90;;;;;;4716647;30;20051;-84
2021/05/23 02:15:54;;;;;;;12.55;4.95;;;10.30;99.90;;;;;;4722293;30;20063;-84
2021/05/23 02:18:21;;;;;;;8.88;4.18;;;10.20;99.90;;;;;;4708098;30;20051;-84
2021/05/23 02:20:48;;;;;;;8.50;4.50;;;10.20;99.90;;;;;;4721142;30;20059;-84
2021/05/23 02:23:21;;;;;;;8.10;4.05;;;10.20;99.90;;;;;;4707322;30;20055;-83
2021/05/23 02:25:47;;;;;;;;;;;10.20;99.90;;;;;;4722023;30;20048;-84
2021/05/23 02:28:15;;;;;;;6.88;4.20;;;10.10;99.90;;;;;;4734576;30;19922;-83
2021/05/23 02:30:44;;;;;;;7.53;4.57;;;10.10;99.90;;;;;;4728677;30;20051;-83
2021/05/23 02:33:12;;;;;;;7.78;4.88;;;10.10;99.90;;;;;;4743931;30;20076;-83
2021/05/23 02:35:43;;;;;;;10.88;4.68;;;10.10;99.90;;;;;;4714898;30;20741;-84
2021/05/23 02:38:11;;;;;;;8.30;5.07;;;10.20;99.90;;;;;;4727900;30;20201;-84
2021/05/23 02:40:39;;;;;;;10.50;5.10;;;10.20;99.90;;;;;;4710437;30;20060;-84
2021/05/23 02:43:07;;;;;;;8.10;4.65;;;10.20;99.90;;;;;;4729863;30;20056;-84
2021/05/23 02:45:35;;;;;;;9.68;5.05;;;10.10;99.90;;;;;;4705966;30;20040;-84
2021/05/23 02:48:03;;;;;;;8.90;5.38;;;10.10;99.90;;;;;;4714066;30;20060;-82
2021/05/23 02:50:33;;;;;;;7.60;4.90;;;10.10;99.90;;;;;;4728430;30;20067;-83
2021/05/23 02:53:00;;;;;;;7.70;4.90;;;10.10;99.90;;;;;;4719718;30;20074;-83
2021/05/23 02:55:28;;;;;;;8.30;4.68;;;10.10;99.90;;;;;;4701850;30;20048;-83
2021/05/23 02:57:54;;;;;;;7.95;5.25;;;10.10;99.90;;;;;;4683469;30;20052;-83
2021/05/23 03:00:23;;;;;;;9.85;6.03;;;10.10;99.90;;;;;;4743037;30;20044;-83
2021/05/23 03:02:51;;;;;;;10.05;5.45;;;10.10;99.90;;;;;;4706682;30;20930;-83
2021/05/23 03:05:21;;;;;;;11.65;6.03;;;10.10;99.90;;;;;;4714456;30;20052;-83
2021/05/23 03:07:50;;;;;;;9.77;5.60;;;10.00;99.90;;;;;;4720335;30;20044;-83
2021/05/23 03:10:20;;;;;;;9.77;5.50;;;10.10;99.90;;;;;;4718030;30;20044;-83
2021/05/23 03:12:47;;;;;;;10.45;5.93;;;10.00;99.90;;;;;;4723596;30;20044;-82
2021/05/23 03:15:16;;;;;;;10.13;5.35;;;10.00;99.90;;;;;;4748099;30;20052;-83
2021/05/23 03:17:45;;;;;;;9.63;5.40;;;9.90;99.90;;;;;;4732161;30;20044;-82
2021/05/23 03:20:14;;;;;;;10.57;5.95;;;9.90;99.90;;;;;;4714285;30;20496;-82
2021/05/23 03:22:42;;;;;;;7.85;5.85;;;9.90;99.90;;;;;;4736562;30;20043;-83
2021/05/23 03:25:11;;;;;;;8.77;5.63;;;9.90;99.90;;;;;;4722498;30;20048;-83
2021/05/23 03:27:37;;;;;;;9.95;6.43;;;9.80;99.90;;;;;;4733739;30;20051;-82
2021/05/23 03:30:07;;;;;;;12.20;7.38;;;9.80;99.90;;;;;;4734038;30;20944;-84
2021/05/23 03:32:33;;;;;;;10.18;5.72;;;9.80;99.90;;;;;;4726075;30;20058;-83
2021/05/23 03:35:00;;;;;;;8.45;6.07;;;9.80;99.90;;;;;;4711491;30;20048;-84
2021/05/23 03:37:26;;;;;;;13.18;6.40;;;9.80;99.90;;;;;;4734237;30;20060;-82
2021/05/23 03:39:53;;;;;;;9.93;6.78;;;9.80;99.90;;;;;;4733413;30;20063;-84
2021/05/23 03:42:19;;;;;;;9.77;6.75;;;9.80;99.90;;;;;;4707449;30;20048;-83
2021/05/23 03:44:46;;;;;;;11.73;7.10;;;9.80;99.90;;;;;;4733508;30;20075;-83
2021/05/23 03:47:13;;;;;;;9.63;7.43;;;9.90;99.90;;;;;;4710236;30;20539;-83
2021/05/23 03:49:40;;;;;;;14.25;8.15;;;9.90;99.90;;;;;;4733498;30;20052;-83
2021/05/23 03:52:09;;;;;;;11.75;8.95;;;9.90;99.90;;;;;;4714110;30;20060;-83
2021/05/23 03:54:36;;;;;;;10.95;7.93;;;9.90;99.90;;;;;;4750896;30;20056;-83
2021/05/23 03:57:04;;;;;;;14.98;9.40;;;10.00;99.90;;;;;;4733180;30;20059;-83
2021/05/23 03:59:33;;;;;;;15.63;10.05;;;10.00;99.90;;;;;;4731184;30;20509;-83
2021/05/23 04:02:00;;;;;;;15.05;9.25;;;10.10;99.90;;;;;;4749782;30;20071;-83
2021/05/23 04:04:45;;;;;;;13.15;9.38;;;10.10;99.90;;;;;;4735218;30;20063;-83
2021/05/23 04:07:13;;;;;;;11.57;9.55;;;10.10;99.90;;;;;;4740277;30;20071;-83
2021/05/23 04:09:39;;;;;;;15.57;9.98;;;10.20;99.90;;;;;;4732798;30;20048;-83
2021/05/23 04:12:08;;;;;;;12.75;9.93;;;10.20;99.90;;;;;;4746058;30;20052;-84
2021/05/23 04:14:35;;;;;;;14.70;9.88;;;10.20;99.90;;;;;;4722871;30;20041;-84
2021/05/23 04:17:02;;;;;;;14.00;10.57;;;10.20;99.90;;;;;;4710121;30;20044;-84
2021/05/23 04:19:28;;;;;;;14.38;9.70;;;10.20;99.90;;;;;;4717654;30;20040;-85
2021/05/23 04:21:55;;;;;;;15.00;9.90;;;10.30;99.90;;;;;;4723888;30;20052;-84
2021/05/23 04:24:23;;;;;;;13.35;10.38;;;10.30;99.90;;;;;;4747031;30;20052;-84
2021/05/23 04:26:49;;;;;;;14.13;10.88;;;10.30;99.90;;;;;;4724029;30;20060;-84
2021/05/23 04:29:16;;;;;;;15.13;10.75;;;10.40;99.90;;;;;;4712631;30;20048;-85
2021/05/23 04:31:42;;;;;;;14.88;10.65;;;10.40;99.90;;;;;;4722462;30;20459;-82
2021/05/23 04:34:09;;;;;;;15.10;12.65;;;10.40;99.90;;;;;;4725192;30;20051;-82
2021/05/23 04:36:35;;;;;;;15.13;12.40;;;10.50;99.90;;;;;;4746063;30;20075;-83
2021/05/23 04:39:02;;;;;;;16.55;12.70;;;10.50;99.90;;;;;;4707634;30;20049;-87
2021/05/23 04:41:29;;;;;;;18.38;13.73;;;10.60;99.90;;;;;;4697496;30;20040;-86
2021/05/23 04:43:55;;;;;;;19.00;14.45;;;10.60;99.90;;;;;;4722388;30;20527;-83
2021/05/23 04:46:22;;;;;;;18.42;14.30;;;10.60;99.90;;;;;;4720773;30;20048;-84
2021/05/23 04:48:48;;;;;;;16.23;13.93;;;10.70;99.90;;;;;;4708887;30;20048;-83
2021/05/23 04:51:15;;;;;;;20.67;16.52;;;10.70;99.90;;;;;;4728609;30;20040;-83
2021/05/23 04:53:42;;;;;;;25.48;19.45;;;10.70;99.90;;;;;;4716481;30;20051;-84
2021/05/23 04:56:08;;;;;;;26.00;19.58;;;10.80;99.90;;;;;;4734628;30;20064;-83
2021/05/23 04:58:35;;;;;;;27.27;19.33;;;10.80;99.90;;;;;;4715003;30;20048;-83
2021/05/23 05:01:02;;;;;;;30.58;23.17;;;10.90;99.90;;;;;;4714130;30;20531;-82
2021/05/23 05:03:43;;;;;;;28.65;21.85;;;10.90;99.90;;;;;;4723991;30;20060;-82
2021/05/23 05:06:09;;;;;;;30.75;21.95;;;11.00;99.90;;;;;;4719701;30;20060;-82
2021/05/23 05:08:36;;;;;;;30.48;22.73;;;11.10;99.90;;;;;;4728695;30;20055;-83
2021/05/23 05:11:03;;;;;;;35.70;27.92;;;11.20;99.90;;;;;;4719052;30;20063;-84
2021/05/23 05:13:29;;;;;;;40.92;28.25;;;11.30;99.90;;;;;;4728431;30;20040;-83
2021/05/23 05:15:56;;;;;;;37.55;27.35;;;11.40;99.90;;;;;;4715555;30;20044;-82
2021/05/23 05:18:22;;;;;;;35.30;26.85;;;11.40;99.90;;;;;;4727992;30;20048;-84
2021/05/23 05:20:49;;;;;;;33.35;25.70;;;11.40;99.90;;;;;;4697226;30;20055;-83
2021/05/23 05:23:15;;;;;;;38.58;31.17;;;11.40;99.90;;;;;;4720949;30;20528;-86
2021/05/23 05:25:42;;;;;;;37.80;28.05;;;11.50;99.90;;;;;;4701638;30;20510;-81
2021/05/23 05:28:08;;;;;;;37.55;28.63;;;11.40;99.90;;;;;;4714232;30;20036;-81
2021/05/23 05:30:35;;;;;;;39.55;29.92;;;11.40;99.90;;;;;;4713963;30;20577;-81
2021/05/23 05:33:01;;;;;;;37.97;28.85;;;11.50;99.90;;;;;;4715530;30;20049;-81
2021/05/23 05:35:28;;;;;;;44.17;32.10;;;11.40;99.90;;;;;;4728189;30;21378;-81
2021/05/23 05:37:54;;;;;;;44.28;33.78;;;11.50;99.90;;;;;;4700343;30;20401;-81
2021/05/23 05:40:21;;;;;;;41.72;31.77;;;11.40;99.90;;;;;;4742476;30;20047;-81
2021/05/23 05:42:48;;;;;;;48.20;35.97;;;11.40;99.90;;;;;;4743450;30;20048;-81
2021/05/23 05:45:15;;;;;;;47.00;35.08;;;11.40;99.90;;;;;;4730505;30;20580;-81
2021/05/23 05:47:41;;;;;;;44.67;32.75;;;11.40;99.90;;;;;;4726635;30;20052;-81
2021/05/23 05:50:09;;;;;;;38.88;29.70;;;11.40;99.90;;;;;;4713885;30;20399;-81
2021/05/23 05:52:36;;;;;;;41.83;32.60;;;11.50;99.90;;;;;;4743600;30;20055;-81
2021/05/23 05:55:03;;;;;;;42.25;31.67;;;11.50;99.90;;;;;;4715254;30;20059;-82
2021/05/23 05:57:29;;;;;;;45.65;35.42;;;11.50;99.90;;;;;;4730340;30;20572;-82
2021/05/23 05:59:56;;;;;;;45.38;34.47;;;11.60;99.90;;;;;;4728024;30;20056;-82
2021/05/23 06:02:23;;;;;;;42.25;31.45;;;11.60;99.90;;;;;;4728376;30;20047;-82
2021/05/23 06:04:50;;;;;;;39.70;32.20;;;11.60;99.90;;;;;;4728924;30;20734;-88
2021/05/23 06:07:17;;;;;;;41.42;32.13;;;11.70;99.90;;;;;;4715407;30;20052;-86
2021/05/23 06:09:43;;;;;;;41.53;32.75;;;11.80;99.90;;;;;;4713752;30;20048;-86
2021/05/23 06:12:10;;;;;;;46.50;35.50;;;11.80;99.90;;;;;;4713582;30;20047;-87
2021/05/23 06:14:37;;;;;;;42.38;33.80;;;11.80;99.90;;;;;;4727422;30;20067;-87
2021/05/23 06:17:05;;;;;;;42.78;32.55;;;11.80;99.90;;;;;;4726508;30;20519;-87
2021/05/23 06:19:31;;;;;;;47.35;35.97;;;11.80;99.90;;;;;;4729346;30;20064;-88
2021/05/23 06:21:58;;;;;;;47.70;36.03;;;11.80;99.90;;;;;;4712806;30;20048;-84
2021/05/23 06:24:25;;;;;;;39.92;34.42;;;11.80;99.90;;;;;;4712987;30;20048;-80
2021/05/23 06:26:51;;;;;;;41.50;32.78;;;11.80;99.90;;;;;;4726105;30;20052;-80
2021/05/23 06:29:18;;;;;;;39.70;33.13;;;11.80;99.90;;;;;;4727807;30;20055;-81
2021/05/23 06:31:45;;;;;;;41.97;32.88;;;11.80;99.90;;;;;;4711711;30;20044;-81
2021/05/23 06:34:12;;;;;;;41.20;33.22;;;11.80;99.90;;;;;;4728564;30;20048;-80
2021/05/23 06:36:39;;;;;;;45.10;32.53;;;11.80;99.90;;;;;;4727081;30;20044;-80
2021/05/23 06:39:06;;;;;;;37.85;28.13;;;11.80;99.90;;;;;;4728574;30;20047;-82
2021/05/23 06:41:33;;;;;;;39.72;30.50;;;11.70;99.90;;;;;;4726623;30;20056;-88
2021/05/23 06:44:00;;;;;;;41.83;25.63;;;11.60;99.90;;;;;;4730573;30;20052;-85
2021/05/23 06:46:26;;;;;;;34.55;22.20;;;11.50;99.90;;;;;;4715614;30;20044;-85
2021/05/23 06:48:53;;;;;;;30.65;22.77;;;11.50;99.90;;;;;;4698812;30;20055;-85
2021/05/23 06:51:19;;;;;;;30.48;23.55;;;11.40;99.90;;;;;;4713543;30;20063;-86
2021/05/23 06:53:47;;;;;;;27.98;21.85;;;11.40;99.90;;;;;;4699409;30;20060;-84
2021/05/23 06:56:14;;;;;;;28.35;19.58;;;11.40;99.90;;;;;;4714719;30;20048;-85
2021/05/23 06:58:42;;;;;;;22.80;17.33;;;11.40;99.90;;;;;;4729586;30;20066;-81
2021/05/23 07:01:10;;;;;;;32.85;18.75;;;11.40;99.90;;;;;;4740722;30;20056;-84
2021/05/23 07:03:37;;;;;;;24.50;18.45;;;11.40;99.90;;;;;;4728181;30;20052;-80
2021/05/23 07:06:04;;;;;;;21.70;15.45;;;11.40;99.90;;;;;;4699466;30;20129;-82
2021/05/23 07:08:31;;;;;;;25.42;16.88;;;11.40;99.90;;;;;;4730137;30;20040;-81
2021/05/23 07:10:58;;;;;;;26.52;16.27;;;11.30;99.90;;;;;;4726438;30;20060;-83
2021/05/23 07:13:26;;;;;;;28.33;16.33;;;11.30;99.90;;;;;;4713494;30;20048;-82
2021/05/23 07:15:53;;;;;;;23.73;15.90;;;11.30;99.90;;;;;;4740313;30;20044;-82
2021/05/23 07:18:20;;;;;;;20.77;13.25;;;11.30;99.90;;;;;;4713815;30;20052;-86
2021/05/23 07:20:47;;;;;;;20.25;13.68;;;11.30;99.90;;;;;;4713165;30;20413;-80
2021/05/23 07:23:13;;;;;;;20.52;13.43;;;11.30;99.90;;;;;;4715922;30;20176;-83
2021/05/23 07:25:40;;;;;;;18.77;13.68;;;11.30;99.90;;;;;;4726679;30;20067;-78
2021/05/23 07:28:07;;;;;;;20.40;12.60;;;11.40;99.90;;;;;;4742703;30;20404;-88
2021/05/23 07:30:34;;;;;;;20.17;11.27;;;11.40;99.90;;;;;;4725686;30;20055;-80
2021/05/23 07:33:00;;;;;;;17.17;11.10;;;11.50;99.90;;;;;;4741552;30;20032;-78
2021/05/23 07:35:27;;;;;;;18.23;11.35;;;11.50;99.90;;;;;;4725460;30;20048;-79
2021/05/23 07:37:53;;;;;;;16.90;11.50;;;11.50;99.90;;;;;;4733028;30;20045;-79
2021/05/23 07:40:20;;;;;;;19.67;10.98;;;11.50;99.90;;;;;;4740473;30;20055;-78
2021/05/23 07:42:47;;;;;;;16.05;10.13;;;11.50;99.90;;;;;;4713658;30;20405;-80
2021/05/23 07:45:13;;;;;;;22.13;13.10;;;11.50;99.90;;;;;;4728124;30;20052;-81
2021/05/23 07:47:40;;;;;;;20.67;12.25;;;11.60;99.90;;;;;;4746237;30;20052;-81
2021/05/23 07:50:10;;;;;;;17.25;11.25;;;11.60;99.90;;;;;;4746383;30;20032;-82
2021/05/23 07:52:37;;;;;;;14.38;10.75;;;11.60;99.90;;;;;;4719396;30;20053;-83
2021/05/23 07:55:04;;;;;;;18.70;10.45;;;11.60;99.90;;;;;;4717482;30;20036;-83
2021/05/23 07:57:32;;;;;;;17.98;9.00;;;11.70;99.90;;;;;;4747465;30;20069;-79
2021/05/23 07:59:58;;;;;;;15.50;10.35;;;11.80;99.90;;;;;;4745882;30;20047;-79
2021/05/23 08:02:25;;;;;;;17.75;8.93;;;11.90;99.90;;;;;;4743505;30;20056;-79
2021/05/23 08:04:51;;;;;;;17.27;8.57;;;12.00;99.90;;;;;;4719244;30;20075;-84
2021/05/23 08:07:18;;;;;;;15.57;8.30;;;12.00;99.90;;;;;;4730400;30;20048;-81
2021/05/23 08:09:44;;;;;;;16.52;8.10;;;12.00;99.90;;;;;;4745448;30;20059;-84
2021/05/23 08:12:11;;;;;;;16.95;7.82;;;11.90;99.90;;;;;;4746363;30;20048;-82
2021/05/23 08:14:38;;;;;;;12.93;7.68;;;11.90;99.90;;;;;;4729375;30;20048;-80
2021/05/23 08:17:04;;;;;;;15.15;6.93;;;11.90;99.90;;;;;;4745338;30;20052;-81
2021/05/23 08:19:31;;;;;;;17.92;8.48;;;11.90;99.90;;;;;;4743609;30;20058;-78
2021/05/23 08:21:57;;;;;;;12.50;7.10;;;11.90;99.90;;;;;;4740680;30;20397;-78
2021/05/23 08:24:24;;;;;;;10.75;6.90;;;12.00;99.90;;;;;;4746001;30;20055;-78
2021/05/23 08:26:51;;;;;;;16.05;6.22;;;12.20;99.90;;;;;;4713496;30;20048;-78
2021/05/23 08:29:17;;;;;;;11.93;6.18;;;12.30;99.90;;;;;;4744605;30;20047;-78
2021/05/23 08:31:50;;;;;;;12.00;5.68;;;12.40;99.90;;;;;;4726035;30;20059;-78
2021/05/23 08:34:17;;;;;;;;;;;12.30;99.90;;;;;;4700993;30;20063;-77
2021/05/23 08:36:43;;;;;;;13.00;7.28;;;12.30;99.90;;;;;;4712358;30;19925;-76
2021/05/23 08:39:09;;;;;;;12.73;6.30;;;12.20;99.90;;;;;;4729846;30;20044;-77
2021/05/23 08:41:36;;;;;;;14.80;6.53;;;12.20;99.90;;;;;;4739523;30;20052;-77
2021/05/23 08:44:03;;;;;;;15.30;7.53;;;12.30;99.90;;;;;;4727957;30;20044;-78
2021/05/23 08:46:31;;;;;;;15.25;7.47;;;12.50;99.90;;;;;;4714806;30;20065;-77
2021/05/23 08:48:58;;;;;;;14.25;7.90;;;12.60;99.90;;;;;;4742518;30;20040;-76
2021/05/23 08:51:25;;;;;;;11.65;6.60;;;12.80;99.70;;;;;;4727823;30;20036;-76
2021/05/23 08:53:51;;;;;;;9.20;6.25;;;12.90;99.50;;;;;;4745650;30;20137;-78
2021/05/23 08:56:18;;;;;;;13.25;5.90;;;12.90;99.10;;;;;;4729476;30;20064;-78
2021/05/23 08:58:45;;;;;;;13.55;5.65;;;12.90;98.60;;;;;;4704082;30;20056;-77
2021/05/23 09:01:27;;;;;;;11.52;4.70;;;13.00;98.30;;;;;;4730822;30;20087;-79
2021/05/23 09:04:03;;;;;;;10.07;3.85;;;13.10;98.20;;;;;;4740603;30;20056;-77
2021/05/23 09:06:34;;;;;;;11.07;3.33;;;13.20;98.20;;;;;;4741255;30;20047;-77
2021/05/23 09:09:06;;;;;;;11.65;3.58;;;13.20;98.00;;;;;;4742874;30;20055;-78
2021/05/23 09:11:33;;;;;;;8.65;3.20;;;13.10;97.80;;;;;;4742105;30;20039;-77
2021/05/23 09:14:00;;;;;;;9.40;3.05;;;13.10;97.90;;;;;;4728297;30;20775;-78
2021/05/23 09:16:36;;;;;;;9.00;2.67;;;13.20;97.80;;;;;;4742146;30;20044;-79
2021/05/23 09:19:03;;;;;;;7.80;1.52;;;13.30;97.40;;;;;;4725766;30;20053;-80
2021/05/23 09:21:33;;;;;;;7.05;2.20;;;13.40;97.30;;;;;;4743433;30;20051;-76
2021/05/23 09:24:05;;;;;;;9.00;1.52;;;13.40;97.00;;;;;;4741351;30;20379;-78
2021/05/23 09:26:37;;;;;;;;;;;13.50;96.80;;;;;;4742599;30;20044;-77
2021/05/23 09:29:09;;;;;;;9.98;1.60;;;13.80;96.50;;;;;;4743559;30;20298;-77
2021/05/23 09:31:37;;;;;;;7.13;1.40;;;13.90;95.70;;;;;;4725865;30;20043;-76
2021/05/23 09:34:03;;;;;;;8.10;1.20;;;13.90;95.80;;;;;;4741414;30;20060;-78
2021/05/23 09:36:44;;;;;;;12.32;1.75;;;14.10;95.00;;;;;;4742841;30;20048;-78
2021/05/23 09:39:11;;;;;;;7.97;1.38;;;14.20;94.00;;;;;;4741999;30;20048;-78
2021/05/23 09:41:38;;;;;;;4.20;0.65;;;14.30;93.40;;;;;;4725269;30;20405;-78
2021/05/23 09:44:15;;;;;;;5.63;0.68;;;14.50;92.70;;;;;;4699325;30;20048;-76
2021/05/23 09:47:04;;;;;;;4.25;0.50;;;14.50;92.00;;;;;;4740806;30;20049;-78
2021/05/23 09:49:42;;;;;;;4.63;0.57;;;14.60;90.90;;;;;;4741269;30;20048;-76
2021/05/23 09:52:16;;;;;;;5.68;0.95;;;14.70;90.10;;;;;;4726752;30;20044;-77
2021/05/23 09:54:53;;;;;;;5.85;0.60;;;14.80;87.60;;;;;;4725896;30;20064;-76
2021/05/23 09:57:22;;;;;;;3.17;0.57;;;14.90;87.20;;;;;;4742186;30;20044;-77
2021/05/23 10:00:04;;;;;;;2.17;0.35;;;14.90;85.30;;;;;;4727494;30;20040;-76
2021/05/23 10:02:58;;;;;;;5.15;0.52;;;15.10;85.90;;;;;;4734479;30;20059;-76
2021/05/23 10:05:27;;;;;;;4.20;0.63;;;15.30;84.40;;;;;;4742570;30;20063;-76
2021/05/23 10:07:53;;;;;;;2.67;0.40;;;15.50;83.70;;;;;;4726296;30;20051;-77
2021/05/23 10:10:20;;;;;;;3.95;0.50;;;15.70;82.00;;;;;;4742402;30;20567;-78
2021/05/23 10:12:47;;;;;;;4.63;0.50;;;15.80;80.40;;;;;;4713367;30;20043;-78
2021/05/23 10:15:14;;;;;;;4.57;0.57;;;15.80;78.20;;;;;;4712693;30;20141;-79
2021/05/23 10:17:41;;;;;;;4.63;0.75;;;15.90;77.70;;;;;;4728685;30;20044;-77
2021/05/23 10:20:10;;;;;;;5.40;0.65;;;15.90;76.70;;;;;;4741996;30;20059;-77
2021/05/23 10:22:39;;;;;;;2.75;0.50;;;16.10;77.60;;;;;;4727354;30;20044;-80
2021/05/23 10:25:11;;;;;;;2.85;0.50;;;16.40;77.10;;;;;;4741526;30;20366;-76
2021/05/23 10:27:42;;;;;;;4.07;0.50;;;16.70;75.60;;;;;;4727748;30;20508;-78
2021/05/23 10:30:10;;;;;;;4.97;0.60;;;17.00;76.70;;;;;;4726982;30;20048;-79
2021/05/23 10:32:38;;;;;;;6.35;0.80;;;17.30;75.50;;;;;;4740638;30;20048;-77
2021/05/23 10:35:21;;;;;;;4.80;0.88;;;17.50;73.60;;;;;;4741538;30;20036;-78
2021/05/23 10:37:50;;;;;;;4.20;1.02;;;17.40;72.60;;;;;;4725706;30;20047;-77
2021/05/23 10:40:28;;;;;;;3.88;0.60;;;17.30;74.60;;;;;;4743407;30;20067;-76
2021/05/23 10:42:57;;;;;;;6.07;0.80;;;17.60;74.60;;;;;;4736722;30;20055;-77
2021/05/23 10:45:37;;;;;;;4.70;0.80;;;17.70;73.40;;;;;;4739674;30;20047;-78
2021/05/23 10:48:14;;;;;;;5.93;0.73;;;17.50;72.60;;;;;;4727779;30;20040;-78
2021/05/23 10:50:44;;;;;;;4.38;0.77;;;17.00;70.90;;;;;;4742985;30;20047;-78
2021/05/23 10:53:12;;;;;;;5.05;0.80;;;16.70;73.50;;;;;;4740477;30;20500;-77
2021/05/23 10:55:50;;;;;;;4.10;0.60;;;16.40;74.40;;;;;;4742514;30;20054;-78
2021/05/23 10:58:24;;;;;;;6.40;0.70;;;16.30;75.90;;;;;;4741117;30;20056;-77
2021/05/23 11:00:56;;;;;;;5.82;0.90;;;16.50;76.00;;;;;;4741988;30;20044;-78
2021/05/23 11:03:25;;;;;;;4.68;0.77;;;16.70;75.30;;;;;;4741410;30;20058;-77
2021/05/23 11:06:03;;;;;;;5.80;0.70;;;16.90;74.30;;;;;;4729091;30;20386;-77
2021/05/23 11:08:35;;;;;;;5.53;0.80;;;17.00;74.10;;;;;;4727889;30;20044;-76
2021/05/23 11:11:03;;;;;;;4.93;0.70;;;17.00;73.10;;;;;;4712970;30;20055;-77
2021/05/23 11:13:34;;;;;;;5.90;0.73;;;17.00;72.00;;;;;;4742995;30;20040;-77
2021/05/23 11:16:15;;;;;;;5.68;0.80;;;16.90;71.20;;;;;;4726135;30;20112;-77
2021/05/23 11:18:42;;;;;;;4.00;0.63;;;16.80;70.70;;;;;;4742037;30;20044;-77
2021/05/23 11:21:12;;;;;;;3.42;0.60;;;16.80;71.30;;;;;;4743180;30;20520;-77
2021/05/23 11:23:44;;;;;;;4.85;0.70;;;16.80;70.90;;;;;;4715437;30;20067;-77
2021/05/23 11:26:16;;;;;;;3.00;0.70;;;16.90;71.10;;;;;;4743377;30;20418;-77
2021/05/23 11:28:54;;;;;;;5.13;0.60;;;17.10;70.40;;;;;;4703715;30;20040;-78
2021/05/23 11:31:21;;;;;;;3.60;0.50;;;17.20;69.50;;;;;;4745900;30;20051;-77
2021/05/23 11:33:49;;;;;;;3.33;0.40;;;17.20;67.40;;;;;;4731458;30;20043;-78
2021/05/23 11:36:24;;;;;;;5.00;0.60;;;17.20;67.80;;;;;;4718972;30;20061;-77
2021/05/23 11:38:58;;;;;;;4.38;0.50;;;17.40;66.30;;;;;;4728687;30;20048;-78
2021/05/23 11:41:39;;;;;;;2.90;0.52;;;17.50;65.30;;;;;;4730034;30;20044;-77
2021/05/23 11:44:09;;;;;;;3.33;0.55;;;17.80;64.80;;;;;;4743730;30;20044;-76
2021/05/23 11:46:37;;;;;;;3.83;0.80;;;18.40;63.80;;;;;;4734732;30;20051;-76
2021/05/23 11:49:04;;;;;;;5.95;1.00;;;19.00;62.70;;;;;;4745303;30;20040;-76
2021/05/23 11:51:33;;;;;;;3.90;0.63;;;19.30;60.70;;;;;;4743438;30;20077;-76
2021/05/23 11:54:04;;;;;;;4.20;0.73;;;19.50;59.80;;;;;;4743611;30;20426;-76
2021/05/23 11:56:33;;;;;;;2.95;0.60;;;19.70;59.80;;;;;;4720823;30;20044;-76
2021/05/23 11:59:05;;;;;;;6.10;1.00;;;20.00;59.90;;;;;;4745363;30;20044;-76
2021/05/23 12:01:34;;;;;;;2.78;0.68;;;20.30;58.10;;;;;;4741452;30;20033;-77
2021/05/23 12:04:12;;;;;;;3.42;0.60;;;20.10;57.20;;;;;;4744733;30;20132;-78
2021/05/23 12:06:43;;;;;;;3.58;0.60;;;19.90;57.00;;;;;;4744128;30;20036;-78
2021/05/23 12:09:22;;;;;;;1.97;0.60;;;20.00;56.40;;;;;;4718169;30;20048;-78
2021/05/23 12:11:52;;;;;;;3.53;1.02;;;20.70;55.90;;;;;;4743921;30;20051;-78
2021/05/23 12:14:27;;;;;;;4.30;0.82;;;21.30;52.80;;;;;;4743204;30;20052;-78
2021/05/23 12:17:07;;;;;;;3.97;1.17;;;21.90;51.80;;;;;;4742708;30;20055;-77
2021/05/23 12:22:36;;;;;;;5.45;0.70;;;22.60;48.60;;;;;;4742973;30;20137;-77
2021/05/23 12:25:03;;;;;;;3.10;0.50;;;22.50;48.40;;;;;;4742323;30;20040;-78
2021/05/23 12:27:31;;;;;;;3.00;0.60;;;22.00;49.60;;;;;;4742456;30;20032;-77
2021/05/23 12:30:11;;;;;;;3.63;0.60;;;21.30;49.00;;;;;;4742071;30;20056;-77
2021/05/23 12:32:58;;;;;;;4.10;0.70;;;20.70;51.20;;;;;;4743693;30;20046;-78
2021/05/23 12:35:31;;;;;;;3.42;0.70;;;20.40;52.30;;;;;;4742718;30;20427;-80
2021/05/23 12:38:09;;;;;;;3.70;0.50;;;19.80;52.30;;;;;;4744167;30;20052;-78
2021/05/23 12:40:48;;;;;;;5.40;1.05;;;19.60;53.40;;;;;;4742834;30;20052;-78
2021/05/23 12:43:14;;;;;;;4.45;0.60;;;19.70;52.90;;;;;;4745007;30;20052;-78
2021/05/23 12:45:44;;;;;;;3.72;0.60;;;19.90;52.40;;;;;;4741174;30;20044;-78
2021/05/23 12:48:12;;;;;;;4.75;0.70;;;20.10;51.50;;;;;;4743137;30;20044;-78
2021/05/23 12:50:44;;;;;;;2.70;0.50;;;20.30;51.00;;;;;;4742676;30;20421;-78
2021/05/23 12:53:10;;;;;;;3.25;0.88;;;20.50;51.10;;;;;;4745176;30;20064;-78